Time;durP1;ratioP1;P1;durP2;ratioP2;P2;SDS_P1;SDS_P2;PMS_P1;PMS_P2;Temp;Humidity;BMP_temperature;BMP_pressure;BME280_temperature;BME280_humidity;BME280_pressure;Samples;Min_cycle;Max_cycle;Signal;HPM_P1;HPM_P2
2023/05/06 00:01:14;;;;;;;19.13;17.23;;;;;;;11.59;100.00;101532.34;5019712;28;20022;-78
2023/05/06 00:03:39;;;;;;;17.80;16.00;;;;;;;11.63;100.00;101527.75;5027966;28;20031;-79
2023/05/06 00:06:06;;;;;;;18.60;16.80;;;;;;;11.56;100.00;101526.44;5028185;28;20068;-79
2023/05/06 00:08:31;;;;;;;19.77;17.67;;;;;;;11.55;100.00;101520.31;5034834;28;20033;-78
2023/05/06 00:10:57;;;;;;;20.25;18.33;;;;;;;11.55;100.00;101517.69;5027801;28;20026;-79
2023/05/06 00:13:22;;;;;;;18.23;16.45;;;;;;;11.54;100.00;101525.72;5011123;28;20026;-79
2023/05/06 00:15:47;;;;;;;18.90;16.40;;;;;;;11.49;100.00;101520.75;5027293;28;20032;-79
2023/05/06 00:18:14;;;;;;;18.40;16.63;;;;;;;11.43;100.00;101525.59;5023545;28;20421;-79
2023/05/06 00:20:40;;;;;;;18.30;16.52;;;;;;;11.32;100.00;101523.66;5029955;28;20441;-79
2023/05/06 00:23:06;;;;;;;19.13;17.30;;;;;;;11.32;100.00;101518.41;5026550;28;20112;-79
2023/05/06 00:25:31;;;;;;;17.75;15.85;;;;;;;11.24;100.00;101513.66;5019763;28;20140;-78
2023/05/06 00:28:03;;;;;;;19.85;16.70;;;;;;;11.23;100.00;101522.50;5028653;28;20021;-78
2023/05/06 00:30:28;;;;;;;19.27;17.27;;;;;;;11.19;100.00;101520.13;5030470;28;20029;-79
2023/05/06 00:32:54;;;;;;;17.90;16.13;;;;;;;11.14;100.00;101525.72;5028473;28;20390;-79
2023/05/06 00:35:19;;;;;;;18.52;16.73;;;;;;;11.15;100.00;101514.22;5029580;28;20116;-78
2023/05/06 00:37:45;;;;;;;19.38;17.38;;;;;;;11.09;100.00;101524.31;5024376;28;20449;-79
2023/05/06 00:40:11;;;;;;;21.02;17.67;;;;;;;11.05;100.00;101528.09;5021391;28;20101;-79
2023/05/06 00:42:36;;;;;;;18.83;16.92;;;;;;;11.03;100.00;101522.09;5028985;28;20117;-78
2023/05/06 00:45:05;;;;;;;19.85;17.73;;;;;;;11.03;100.00;101512.41;5028357;28;20053;-78
2023/05/06 00:47:32;;;;;;;20.10;18.00;;;;;;;10.98;100.00;101523.25;5028412;28;20060;-78
2023/05/06 00:49:57;;;;;;;19.30;17.33;;;;;;;10.96;100.00;101519.03;5026992;28;20067;-79
2023/05/06 00:52:23;;;;;;;19.05;17.15;;;;;;;10.95;100.00;101517.34;5026377;28;20021;-79
2023/05/06 00:54:48;;;;;;;18.95;17.00;;;;;;;10.92;100.00;101522.78;5027834;28;20057;-78
2023/05/06 00:57:15;;;;;;;19.55;17.65;;;;;;;10.90;100.00;101514.16;5020639;28;20018;-78
2023/05/06 00:59:41;;;;;;;19.83;17.70;;;;;;;10.85;100.00;101510.97;5025781;28;20064;-78
2023/05/06 01:02:08;;;;;;;21.75;19.45;;;;;;;10.82;100.00;101511.19;5027281;28;20474;-78
2023/05/06 01:04:36;;;;;;;20.60;18.27;;;;;;;10.82;100.00;101512.03;5028144;28;20045;-78
2023/05/06 01:07:17;;;;;;;20.73;18.35;;;;;;;10.86;100.00;101510.88;5030455;28;20025;-79
2023/05/06 01:09:54;;;;;;;20.00;17.88;;;;;;;10.83;100.00;101518.13;5040668;28;20052;-79
2023/05/06 01:12:28;;;;;;;21.88;18.23;;;;;;;10.75;100.00;101515.13;5031558;28;20124;-79
2023/05/06 01:15:21;;;;;;;20.10;18.08;;;;;;;10.80;100.00;101511.25;5027240;28;20022;-78
2023/05/06 01:17:50;;;;;;;20.90;17.83;;;;;;;10.72;100.00;101515.31;5033298;28;20057;-78
2023/05/06 01:20:17;;;;;;;20.58;18.42;;;;;;;10.66;100.00;101514.78;5031726;28;20030;-78
2023/05/06 01:22:43;;;;;;;20.13;17.55;;;;;;;10.67;100.00;101513.81;5033248;28;20040;-78
2023/05/06 01:25:18;;;;;;;19.23;17.42;;;;;;;10.66;100.00;101506.88;5033886;28;20033;-78
2023/05/06 01:27:43;;;;;;;20.17;18.08;;;;;;;10.67;100.00;101502.47;5030462;28;21656;-78
2023/05/06 01:30:09;;;;;;;23.38;17.88;;;;;;;10.70;100.00;101504.03;5029856;28;20029;-78
2023/05/06 01:32:53;;;;;;;20.92;18.85;;;;;;;10.62;100.00;101500.13;5030703;28;20088;-78
2023/05/06 01:35:54;;;;;;;20.63;18.52;;;;;;;10.68;100.00;101499.72;5029649;28;20644;-78
2023/05/06 01:38:46;;;;;;;19.95;17.88;;;;;;;10.65;100.00;101499.91;5029476;28;20404;-79
2023/05/06 01:41:15;;;;;;;20.55;18.50;;;;;;;10.54;100.00;101501.56;5029843;28;20514;-79
2023/05/06 01:43:43;;;;;;;19.98;18.02;;;;;;;10.55;100.00;101503.25;5031160;28;20030;-79
2023/05/06 01:46:14;;;;;;;20.45;18.35;;;;;;;10.58;100.00;101506.53;5031701;28;20101;-79
2023/05/06 01:48:40;;;;;;;19.83;17.77;;;;;;;10.57;100.00;101506.63;5030561;28;20021;-79
2023/05/06 01:51:06;;;;;;;19.98;18.05;;;;;;;10.56;100.00;101511.03;5024611;28;20026;-78
2023/05/06 01:53:32;;;;;;;20.38;18.17;;;;;;;10.51;100.00;101515.75;5029016;28;20028;-79
2023/05/06 01:55:57;;;;;;;19.48;17.40;;;;;;;10.52;100.00;101514.81;5030610;28;20033;-78
2023/05/06 01:58:22;;;;;;;21.52;18.00;;;;;;;10.43;100.00;101523.28;5027734;28;20147;-79
2023/05/06 02:00:48;;;;;;;19.08;17.27;;;;;;;10.43;100.00;101525.06;5031091;28;20104;-78
2023/05/06 02:03:15;;;;;;;19.92;17.85;;;;;;;10.41;100.00;101517.28;5029759;28;20075;-78
2023/05/06 02:05:40;;;;;;;19.23;17.05;;;;;;;10.34;100.00;101521.19;5031647;28;20056;-78
2023/05/06 02:08:08;;;;;;;19.60;17.52;;;;;;;10.32;100.00;101520.44;5024787;28;20021;-79
2023/05/06 02:10:33;;;;;;;19.98;17.88;;;;;;;10.30;100.00;101519.72;5030270;28;20029;-79
2023/05/06 02:13:09;;;;;;;18.55;16.65;;;;;;;10.30;100.00;101519.72;5029695;28;20028;-78
2023/05/06 02:15:35;;;;;;;20.65;17.70;;;;;;;10.28;100.00;101521.59;5030903;28;20053;-78
2023/05/06 02:18:04;;;;;;;19.88;17.83;;;;;;;10.27;100.00;101530.41;5029681;28;20052;-78
2023/05/06 02:20:29;;;;;;;19.75;17.65;;;;;;;10.22;100.00;101530.72;5032812;28;20034;-79
2023/05/06 02:22:56;;;;;;;18.48;16.67;;;;;;;10.21;100.00;101536.06;5031174;28;20509;-78
2023/05/06 02:25:21;;;;;;;18.58;16.77;;;;;;;10.16;100.00;101532.84;5026909;28;20036;-78
2023/05/06 02:27:47;;;;;;;19.75;17.75;;;;;;;10.16;100.00;101532.84;5038912;28;20029;-78
2023/05/06 02:30:13;;;;;;;19.88;17.77;;;;;;;10.10;100.00;101533.22;5030276;28;20021;-78
2023/05/06 02:32:39;;;;;;;18.98;16.98;;;;;;;10.11;100.00;101535.75;5029999;28;20545;-78
2023/05/06 02:35:05;;;;;;;20.27;18.30;;;;;;;10.15;100.00;101533.78;5031101;28;20120;-79
2023/05/06 02:37:30;;;;;;;19.30;17.38;;;;;;;10.16;100.00;101538.09;5027814;28;20057;-79
2023/05/06 02:39:55;;;;;;;20.65;18.52;;;;;;;10.12;100.00;101531.34;5029422;28;20036;-79
2023/05/06 02:42:21;;;;;;;18.67;16.85;;;;;;;10.08;100.00;101532.47;5023050;28;20046;-78
2023/05/06 02:44:46;;;;;;;19.98;16.88;;;;;;;10.02;100.00;101529.28;5030205;28;20022;-78
2023/05/06 02:47:11;;;;;;;19.10;17.10;;;;;;;10.05;100.00;101529.09;5028969;28;20040;-78
2023/05/06 02:49:37;;;;;;;18.63;16.67;;;;;;;10.03;100.00;101525.72;5031097;28;20033;-78
2023/05/06 02:52:07;;;;;;;18.75;16.85;;;;;;;10.02;100.00;101526.66;5028717;28;20385;-78
2023/05/06 02:54:32;;;;;;;19.05;17.15;;;;;;;9.98;100.00;101522.47;5029471;28;20440;-78
2023/05/06 02:56:58;;;;;;;18.73;16.80;;;;;;;9.97;100.00;101518.16;5028208;28;20092;-78
2023/05/06 02:59:25;;;;;;;18.00;16.30;;;;;;;9.93;100.00;101515.81;5022826;28;20022;-78
2023/05/06 03:01:50;;;;;;;18.73;16.95;;;;;;;9.87;100.00;101517.03;5025846;28;20039;-78
2023/05/06 03:04:17;;;;;;;17.80;16.00;;;;;;;9.82;100.00;101515.63;5028036;28;20406;-78
2023/05/06 03:06:42;;;;;;;17.33;15.52;;;;;;;9.82;100.00;101523.50;5039687;28;20090;-78
2023/05/06 03:09:08;;;;;;;17.15;15.45;;;;;;;9.81;100.00;101522.66;5029418;28;20026;-78
2023/05/06 03:11:34;;;;;;;16.67;15.07;;;;;;;9.81;100.00;101524.44;5026721;28;20473;-78
2023/05/06 03:14:05;;;;;;;16.80;15.07;;;;;;;9.74;100.00;101521.34;5030514;28;20044;-78
2023/05/06 03:16:30;;;;;;;17.15;15.32;;;;;;;9.74;100.00;101521.34;5022838;28;20025;-78
2023/05/06 03:18:56;;;;;;;16.88;15.07;;;;;;;9.70;100.00;101515.44;5024459;28;20465;-78
2023/05/06 03:21:21;;;;;;;17.30;15.52;;;;;;;9.71;100.00;101513.66;5027181;28;20025;-78
2023/05/06 03:23:46;;;;;;;17.98;16.05;;;;;;;9.68;100.00;101516.47;5010771;28;20544;-78
2023/05/06 03:26:12;;;;;;;16.85;15.15;;;;;;;9.66;100.00;101513.09;5022708;28;20029;-78
2023/05/06 03:28:40;;;;;;;16.88;15.23;;;;;;;9.62;100.00;101511.56;5025218;28;20053;-77
2023/05/06 03:31:06;;;;;;;18.35;15.85;;;;;;;9.64;100.00;101512.34;5008691;28;20026;-78
2023/05/06 03:33:32;;;;;;;17.02;15.32;;;;;;;9.63;100.00;101508.84;5015617;28;20037;-78
2023/05/06 03:35:58;;;;;;;17.08;15.35;;;;;;;9.65;100.00;101503.50;5027130;28;20026;-78
2023/05/06 03:38:23;;;;;;;17.52;15.73;;;;;;;9.64;100.00;101500.03;5028002;28;20547;-79
2023/05/06 03:40:49;;;;;;;17.63;15.75;;;;;;;9.68;100.00;101505.94;5030229;28;20767;-76
2023/05/06 03:43:15;;;;;;;17.35;15.45;;;;;;;9.66;100.00;101502.56;5028164;28;20036;-76
2023/05/06 03:45:40;;;;;;;18.05;15.85;;;;;;;9.64;100.00;101504.44;5030335;28;20025;-76
2023/05/06 03:48:16;;;;;;;16.73;15.07;;;;;;;9.62;100.00;101507.16;5028732;28;20031;-76
2023/05/06 03:50:42;;;;;;;18.50;15.25;;;;;;;9.60;100.00;101508.16;5030245;28;20026;-76
2023/05/06 03:53:08;;;;;;;17.52;14.77;;;;;;;9.58;100.00;101510.03;5024792;28;20052;-76
2023/05/06 03:55:33;;;;;;;16.05;14.45;;;;;;;9.54;100.00;101508.53;5029043;28;20373;-76
2023/05/06 03:58:05;;;;;;;18.15;14.68;;;;;;;9.54;100.00;101509.38;5028774;28;20025;-76
2023/05/06 04:00:30;;;;;;;15.73;14.13;;;;;;;9.54;100.00;101503.28;5028571;28;20038;-79
2023/05/06 04:02:56;;;;;;;17.88;15.00;;;;;;;9.50;100.00;101513.13;5028718;28;20390;-80
2023/05/06 04:05:22;;;;;;;15.77;14.18;;;;;;;9.49;100.00;101521.09;5027009;28;20033;-80
2023/05/06 04:07:47;;;;;;;20.27;14.30;;;;;;;9.43;100.00;101515.28;5027142;28;20061;-80
2023/05/06 04:10:13;;;;;;;16.05;13.60;;;;;;;9.45;100.00;101514.34;5024643;28;20021;-80
2023/05/06 04:12:38;;;;;;;17.40;13.25;;;;;;;9.43;100.00;101524.94;5024793;28;20437;-80
2023/05/06 04:15:04;;;;;;;18.50;14.40;;;;;;;9.46;100.00;101523.91;5020847;28;20026;-80
2023/05/06 04:17:30;;;;;;;15.10;13.50;;;;;;;9.48;100.00;101519.41;5030097;28;20033;-80
2023/05/06 04:19:56;;;;;;;15.35;13.63;;;;;;;9.48;100.00;101524.66;5030210;28;20026;-80
2023/05/06 04:22:21;;;;;;;16.10;13.10;;;;;;;9.53;100.00;101527.84;5026717;28;20025;-80
2023/05/06 04:24:47;;;;;;;17.45;12.85;;;;;;;9.55;100.00;101520.72;5011535;28;20083;-80
2023/05/06 04:27:12;;;;;;;16.65;13.10;;;;;;;9.57;100.00;101518.84;5028172;28;20121;-80
2023/05/06 04:29:37;;;;;;;15.25;13.25;;;;;;;9.58;100.00;101526.66;5009450;28;20037;-80
2023/05/06 04:32:03;;;;;;;14.73;13.10;;;;;;;9.57;100.00;101529.38;5025145;28;20379;-78
2023/05/06 04:34:29;;;;;;;14.57;12.68;;;;;;;9.60;100.00;101531.81;5010207;28;20025;-78
2023/05/06 04:36:55;;;;;;;13.90;12.50;;;;;;;9.64;100.00;101525.47;5009424;28;20026;-79
2023/05/06 04:39:20;;;;;;;14.35;12.63;;;;;;;9.68;100.00;101532.22;5008319;28;20028;-79
2023/05/06 04:41:49;;;;;;;16.88;13.15;;;;;;;9.71;100.00;101530.25;5011795;28;20084;-78
2023/05/06 04:44:15;;;;;;;14.65;13.07;;;;;;;9.74;100.00;101531.84;5015114;28;20037;-79
2023/05/06 04:46:40;;;;;;;16.08;12.95;;;;;;;9.76;100.00;101532.63;5013984;28;20033;-79
2023/05/06 04:49:06;;;;;;;14.20;12.63;;;;;;;9.76;100.00;101529.13;5013840;28;20034;-79
2023/05/06 04:51:31;;;;;;;12.93;11.60;;;;;;;9.79;100.00;101529.81;5015020;28;20089;-79
2023/05/06 04:53:56;;;;;;;13.77;12.38;;;;;;;9.77;100.00;101539.56;5014252;28;20018;-79
2023/05/06 04:56:21;;;;;;;16.30;13.25;;;;;;;9.81;100.00;101541.06;5012517;28;20494;-79
2023/05/06 04:58:47;;;;;;;14.38;12.93;;;;;;;9.81;100.00;101541.06;5013756;28;20037;-79
2023/05/06 05:01:12;;;;;;;13.93;12.55;;;;;;;9.84;100.00;101540.88;5016619;28;20049;-79
2023/05/06 05:03:38;;;;;;;14.27;11.98;;;;;;;9.90;100.00;101545.75;5032229;28;20029;-79
2023/05/06 05:06:05;;;;;;;14.63;12.48;;;;;;;9.90;100.00;101547.56;5031884;28;20026;-79
2023/05/06 05:08:30;;;;;;;14.80;12.48;;;;;;;9.94;100.00;101549.91;5045201;28;20060;-79
2023/05/06 05:10:55;;;;;;;14.20;12.70;;;;;;;9.95;100.00;101551.59;5051125;28;20045;-79
2023/05/06 05:13:21;;;;;;;15.02;12.60;;;;;;;10.02;100.00;101555.56;5051884;28;20500;-79
2023/05/06 05:15:46;;;;;;;15.93;12.95;;;;;;;10.04;100.00;101553.69;5052511;28;20485;-79
2023/05/06 05:18:19;;;;;;;14.98;12.48;;;;;;;10.10;100.00;101564.78;5032283;28;20036;-79
2023/05/06 05:20:44;;;;;;;15.52;13.02;;;;;;;10.12;100.00;101563.75;5032503;28;20032;-79
2023/05/06 05:23:10;;;;;;;14.50;12.40;;;;;;;10.15;100.00;101567.97;5032802;28;20120;-79
2023/05/06 05:25:36;;;;;;;13.63;11.85;;;;;;;10.21;100.00;101570.25;5036542;28;20111;-79
2023/05/06 05:28:05;;;;;;;14.05;11.95;;;;;;;10.18;100.00;101570.41;5051979;28;20442;-79
2023/05/06 05:30:36;;;;;;;13.85;12.45;;;;;;;10.20;100.00;101572.03;5051198;28;20025;-79
2023/05/06 05:33:01;;;;;;;16.88;12.23;;;;;;;10.28;100.00;101568.94;5042436;28;20049;-79
2023/05/06 05:35:26;;;;;;;15.00;11.68;;;;;;;10.33;100.00;101574.75;5012628;28;20060;-78
2023/05/06 05:37:52;;;;;;;15.50;12.43;;;;;;;10.35;100.00;101575.50;5012589;28;20117;-79
2023/05/06 05:40:29;;;;;;;15.75;13.00;;;;;;;10.40;100.00;101589.22;5011955;28;20378;-78
2023/05/06 05:42:55;;;;;;;16.15;12.98;;;;;;;10.52;100.00;101587.63;5012471;28;20072;-78
2023/05/06 05:45:38;;;;;;;14.57;12.43;;;;;;;10.63;100.00;101579.91;5011994;28;20022;-78
2023/05/06 05:48:04;;;;;;;13.40;11.93;;;;;;;10.75;100.00;101583.56;5012195;28;20030;-78
2023/05/06 05:50:32;;;;;;;13.93;11.23;;;;;;;10.80;100.00;101579.69;5017469;28;20044;-79
2023/05/06 05:52:58;;;;;;;15.75;11.90;;;;;;;10.91;100.00;101589.56;5026245;28;20028;-78
2023/05/06 05:55:24;;;;;;;14.43;11.65;;;;;;;10.99;100.00;101576.75;5031888;28;20112;-78
2023/05/06 05:57:53;;;;;;;15.88;11.65;;;;;;;11.07;100.00;101578.88;5032651;28;20108;-78
2023/05/06 06:00:19;;;;;;;14.45;10.75;;;;;;;11.16;100.00;101578.28;5031214;28;20044;-78
2023/05/06 06:02:45;;;;;;;12.90;10.70;;;;;;;11.23;100.00;101575.19;5031716;28;20116;-78
2023/05/06 06:05:10;;;;;;;12.98;10.98;;;;;;;11.32;100.00;101578.16;5025884;28;20120;-78
2023/05/06 06:07:37;;;;;;;11.98;10.10;;;;;;;11.34;100.00;101577.09;5022305;28;20024;-77
2023/05/06 06:10:06;;;;;;;14.40;10.10;;;;;;;11.41;100.00;101577.53;5049723;28;20033;-78
2023/05/06 06:12:31;;;;;;;14.20;10.43;;;;;;;11.53;100.00;101571.47;5051118;28;20021;-78
2023/05/06 06:14:57;;;;;;;12.95;10.13;;;;;;;11.56;100.00;101566.81;5050208;28;20389;-78
2023/05/06 06:17:23;;;;;;;14.80;10.82;;;;;;;11.65;100.00;101565.38;5050965;28;20083;-78
2023/05/06 06:19:50;;;;;;;14.10;9.98;;;;;;;11.77;100.00;101569.84;5052353;28;20021;-79
2023/05/06 06:22:17;;;;;;;13.43;9.27;;;;;;;11.81;100.00;101567.84;5029651;28;20033;-78
2023/05/06 06:24:42;;;;;;;15.23;9.35;;;;;;;11.87;100.00;101570.06;5031552;28;20037;-78
2023/05/06 06:27:07;;;;;;;12.38;9.30;;;;;;;11.93;100.00;101575.78;5048684;28;20386;-78
2023/05/06 06:29:33;;;;;;;11.93;9.05;;;;;;;12.01;100.00;101577.91;5051680;28;20116;-78
2023/05/06 06:31:58;;;;;;;11.05;9.18;;;;;;;12.07;100.00;101576.66;5052123;28;20056;-78
2023/05/06 06:34:24;;;;;;;13.10;9.23;;;;;;;12.12;100.00;101575.38;5049503;28;20013;-78
2023/05/06 06:36:49;;;;;;;11.23;8.68;;;;;;;12.21;100.00;101573.91;5043800;28;20037;-78
2023/05/06 06:39:35;;;;;;;11.82;8.43;;;;;;;12.32;100.00;101584.53;5025955;28;20501;-78
2023/05/06 06:42:03;;;;;;;11.07;8.48;;;;;;;12.37;100.00;101585.06;5030299;28;20053;-78
2023/05/06 06:44:31;;;;;;;11.27;7.97;;;;;;;12.42;100.00;101590.91;5032320;28;20505;-78
2023/05/06 06:46:57;;;;;;;12.35;8.30;;;;;;;12.44;100.00;101586.34;5031581;28;20029;-78
2023/05/06 06:49:22;;;;;;;13.05;8.35;;;;;;;12.63;100.00;101585.03;5030267;28;20028;-78
2023/05/06 06:51:50;;;;;;;11.23;7.70;;;;;;;12.72;100.00;101587.03;5031322;28;20211;-78
2023/05/06 06:54:15;;;;;;;14.05;8.43;;;;;;;12.87;100.00;101588.59;5024432;28;20022;-78
2023/05/06 06:56:40;;;;;;;12.10;8.13;;;;;;;13.05;100.00;101581.13;5026007;28;20033;-78
2023/05/06 06:59:07;;;;;;;12.10;8.50;;;;;;;13.16;100.00;101592.59;5025721;28;20022;-78
2023/05/06 07:01:32;;;;;;;14.68;8.13;;;;;;;13.28;100.00;101587.41;5011204;28;20434;-78
2023/05/06 07:03:58;;;;;;;10.10;7.80;;;;;;;13.53;100.00;101587.28;5007857;28;20113;-78
2023/05/06 07:06:24;;;;;;;10.70;7.75;;;;;;;13.70;100.00;101593.97;5025237;28;20034;-79
2023/05/06 07:08:50;;;;;;;18.90;14.52;;;;;;;13.89;100.00;101582.81;5043709;28;20024;-79
2023/05/06 07:11:15;;;;;;;12.10;8.52;;;;;;;13.97;100.00;101591.00;5049157;28;20032;-78
2023/05/06 07:13:40;;;;;;;10.48;7.90;;;;;;;14.13;100.00;101586.25;5024644;28;20053;-78
2023/05/06 07:16:06;;;;;;;15.85;10.88;;;;;;;14.38;100.00;101591.31;5010043;28;20029;-79
2023/05/06 07:18:35;;;;;;;14.63;10.35;;;;;;;14.67;100.00;101596.16;5010069;28;20034;-78
2023/05/06 07:21:01;;;;;;;17.77;9.88;;;;;;;14.84;100.00;101598.34;5010159;28;20033;-79
2023/05/06 07:23:26;;;;;;;27.50;19.08;;;;;;;15.00;100.00;101596.13;5010669;28;20037;-79
2023/05/06 07:25:52;;;;;;;15.05;10.50;;;;;;;15.22;100.00;101597.06;5023054;28;20109;-79
2023/05/06 07:28:18;;;;;;;18.58;11.52;;;;;;;15.30;99.25;101594.59;5048416;28;20020;-78
2023/05/06 07:31:06;;;;;;;21.08;12.65;;;;;;;15.42;100.00;101598.91;5038186;28;20025;-79
2023/05/06 07:33:32;;;;;;;22.00;14.68;;;;;;;15.65;98.52;101591.72;5007457;28;20041;-79
2023/05/06 07:35:58;;;;;;;25.85;17.08;;;;;;;15.68;97.58;101595.94;5026033;28;20032;-79
2023/05/06 07:38:23;;;;;;;56.85;36.83;;;;;;;15.89;97.23;101594.97;5009672;28;20026;-79
2023/05/06 07:40:52;;;;;;;56.13;36.72;;;;;;;16.21;95.90;101580.78;5010432;28;20030;-79
2023/05/06 07:43:18;;;;;;;18.05;12.32;;;;;;;16.26;91.99;101590.03;5008787;28;20048;-79
2023/05/06 07:45:48;;;;;;;18.50;11.23;;;;;;;16.55;91.48;101599.94;5010120;28;20026;-79
2023/05/06 07:48:14;;;;;;;23.45;13.95;;;;;;;16.91;90.46;101596.75;5025567;28;20044;-79
2023/05/06 07:50:39;;;;;;;19.65;12.73;;;;;;;17.23;89.02;101596.53;5030386;28;20018;-80
2023/05/06 07:53:05;;;;;;;22.77;14.20;;;;;;;17.55;88.70;101596.25;5027297;28;20025;-80
2023/05/06 07:55:33;;;;;;;26.90;16.92;;;;;;;17.74;85.76;101594.59;5028871;28;20025;-80
2023/05/06 07:57:58;;;;;;;20.23;12.35;;;;;;;17.87;82.44;101605.78;5029853;28;20037;-80
2023/05/06 08:00:43;;;;;;;21.42;12.55;;;;;;;18.01;83.40;101597.38;5028556;28;20375;-81
2023/05/06 08:03:08;;;;;;;18.55;12.80;;;;;;;18.35;79.78;101592.34;5025170;28;20037;-81
2023/05/06 08:05:34;;;;;;;15.20;10.55;;;;;;;18.68;81.66;101596.31;5027017;28;20022;-81
2023/05/06 08:08:05;;;;;;;14.40;10.45;;;;;;;18.71;78.35;101595.19;5038447;28;20103;-81
2023/05/06 08:10:31;;;;;;;15.07;10.52;;;;;;;19.03;75.18;101594.72;5049716;28;20071;-82
2023/05/06 08:13:05;;;;;;;12.50;9.95;;;;;;;19.12;77.73;101599.16;5049734;28;20024;-81
2023/05/06 08:15:31;;;;;;;13.40;9.55;;;;;;;19.34;74.37;101600.56;5049472;28;20048;-80
2023/05/06 08:17:56;;;;;;;16.55;10.75;;;;;;;19.46;74.77;101601.16;5053581;28;20049;-80
2023/05/06 08:20:22;;;;;;;14.73;10.18;;;;;;;19.66;71.40;101600.06;5034663;28;20218;-80
2023/05/06 08:22:48;;;;;;;16.52;10.38;;;;;;;19.88;72.37;101591.53;5028764;28;20072;-80
2023/05/06 08:25:13;;;;;;;16.77;9.82;;;;;;;20.05;69.33;101586.34;5016833;28;20037;-81
2023/05/06 08:27:39;;;;;;;15.35;10.65;;;;;;;19.91;69.38;101591.22;5052792;28;20129;-80
2023/05/06 08:30:05;;;;;;;13.88;8.88;;;;;;;20.02;69.93;101588.31;5051565;28;20036;-81
2023/05/06 08:32:30;;;;;;;14.52;8.52;;;;;;;20.15;68.99;101587.06;5053425;28;20024;-81
2023/05/06 08:34:55;;;;;;;16.42;9.63;;;;;;;20.47;69.11;101589.94;5051839;28;20024;-81
2023/05/06 08:37:21;;;;;;;11.70;7.95;;;;;;;20.67;67.93;101587.03;5029744;28;20068;-81
2023/05/06 08:39:46;;;;;;;6.03;4.10;;;;;;;20.58;63.38;101583.47;5029191;28;20172;-80
2023/05/06 08:42:28;;;;;;;10.10;5.15;;;;;;;20.54;65.38;101582.97;5012274;28;20057;-80
2023/05/06 08:44:54;;;;;;;10.02;7.10;;;;;;;20.39;63.91;101587.19;5013512;28;20026;-80
2023/05/06 08:47:20;;;;;;;11.32;7.35;;;;;;;20.48;65.17;101588.97;5013135;28;20029;-82
2023/05/06 08:49:46;;;;;;;10.07;7.38;;;;;;;20.71;65.37;101583.03;5013162;28;20029;-79
2023/05/06 08:52:11;;;;;;;10.50;6.93;;;;;;;20.83;64.32;101573.72;5027552;28;20083;-79
2023/05/06 08:54:37;;;;;;;13.65;7.28;;;;;;;20.99;63.31;101576.44;5016204;28;20034;-79
2023/05/06 08:57:09;;;;;;;9.48;5.30;;;;;;;21.11;60.04;101575.09;5009440;28;20041;-80
2023/05/06 08:59:35;;;;;;;8.82;6.20;;;;;;;21.33;61.97;101572.84;5012639;28;20419;-80
2023/05/06 09:02:01;;;;;;;12.38;6.72;;;;;;;21.22;59.23;101571.31;5012013;28;20068;-80
2023/05/06 09:04:26;;;;;;;8.32;5.30;;;;;;;21.47;60.24;101572.19;5012026;28;20053;-80
2023/05/06 09:06:52;;;;;;;9.50;5.45;;;;;;;21.94;59.53;101566.13;5013433;28;20038;-79
2023/05/06 09:09:17;;;;;;;10.18;5.85;;;;;;;21.82;58.62;101563.81;5044453;28;20025;-79
2023/05/06 09:12:02;;;;;;;6.93;4.15;;;;;;;21.73;57.29;101564.81;5012546;28;20022;-80
2023/05/06 09:14:28;;;;;;;7.68;3.65;;;;;;;22.07;53.80;101561.13;5013052;28;20026;-80
2023/05/06 09:16:53;;;;;;;6.57;4.60;;;;;;;22.06;54.19;101560.28;5010765;28;20831;-80
2023/05/06 09:19:20;;;;;;;7.95;4.75;;;;;;;22.60;55.28;101562.28;5012720;28;20200;-79
2023/05/06 09:21:48;;;;;;;7.32;4.45;;;;;;;22.78;55.27;101565.53;5012624;28;20049;-79
2023/05/06 09:24:14;;;;;;;4.95;3.40;;;;;;;22.97;55.60;101554.41;5010124;28;20041;-79
2023/05/06 09:26:42;;;;;;;6.20;3.60;;;;;;;23.05;53.60;101554.34;5024283;28;20038;-79
2023/05/06 09:29:08;;;;;;;5.03;2.97;;;;;;;23.31;51.72;101566.59;5011922;28;20033;-80
2023/05/06 09:31:40;;;;;;;5.72;3.20;;;;;;;23.14;51.40;101566.69;5011764;28;20029;-80
2023/05/06 09:34:06;;;;;;;5.20;3.05;;;;;;;23.24;50.37;101560.28;5012418;28;20071;-79
2023/05/06 09:36:32;;;;;;;5.30;2.70;;;;;;;23.10;49.40;101560.00;5012638;28;20042;-80
2023/05/06 09:38:57;;;;;;;4.45;2.97;;;;;;;22.92;51.76;101550.59;5012322;28;20363;-80
2023/05/06 09:41:26;;;;;;;5.40;2.95;;;;;;;23.06;51.63;101557.88;5012292;28;20045;-80
2023/05/06 09:43:53;;;;;;;4.47;2.70;;;;;;;23.37;49.83;101555.97;5024355;28;20033;-80
2023/05/06 09:46:20;;;;;;;5.57;2.80;;;;;;;23.43;49.33;101549.88;5030604;28;20044;-80
2023/05/06 09:48:48;;;;;;;5.43;2.90;;;;;;;23.77;49.32;101543.22;5033122;28;20104;-80
2023/05/06 09:51:29;;;;;;;6.63;2.75;;;;;;;23.78;49.27;101542.22;5031129;28;20083;-80
2023/05/06 09:53:56;;;;;;;3.58;1.85;;;;;;;24.86;46.74;101542.47;5031772;28;20025;-80
2023/05/06 09:56:22;;;;;;;4.07;2.20;;;;;;;26.05;42.02;101532.78;5030584;28;20194;-80
2023/05/06 09:58:51;;;;;;;5.20;2.00;;;;;;;26.64;41.75;101534.94;5031056;28;20032;-80
2023/05/06 10:01:17;;;;;;;2.35;1.33;;;;;;;27.32;38.54;101535.75;5020947;28;20037;-81
2023/05/06 10:03:44;;;;;;;3.25;1.40;;;;;;;27.50;37.97;101531.59;5012480;28;20026;-81
2023/05/06 10:06:11;;;;;;;5.53;1.20;;;;;;;27.58;35.92;101526.78;5011776;28;20088;-81
2023/05/06 10:08:37;;;;;;;1.67;1.05;;;;;;;27.57;36.10;101524.31;5045628;28;20462;-80
2023/05/06 10:11:09;;;;;;;3.58;1.27;;;;;;;27.45;37.34;101526.81;5051620;28;20033;-81
2023/05/06 10:13:40;;;;;;;3.03;1.55;;;;;;;27.51;38.09;101523.28;5051498;28;20021;-80
2023/05/06 10:16:07;;;;;;;6.25;1.85;;;;;;;26.30;37.74;101518.78;5051313;28;20021;-81
2023/05/06 10:18:35;;;;;;;4.57;1.80;;;;;;;25.40;41.92;101523.13;5024043;28;20116;-81
2023/05/06 10:21:07;;;;;;;2.97;1.77;;;;;;;24.72;44.02;101521.78;5011006;28;20022;-80
2023/05/06 10:23:45;;;;;;;4.50;1.58;;;;;;;24.54;42.95;101521.38;5011443;28;20022;-81
2023/05/06 10:26:12;;;;;;;2.83;1.38;;;;;;;24.67;43.39;101518.81;5028928;28;20037;-80
2023/05/06 10:28:42;;;;;;;4.13;1.30;;;;;;;24.09;44.21;101517.03;5048878;28;20029;-80
2023/05/06 10:31:11;;;;;;;4.03;1.40;;;;;;;23.65;45.70;101513.28;5050184;28;20510;-81
2023/05/06 10:33:38;;;;;;;3.40;1.60;;;;;;;23.66;46.72;101517.63;5049900;28;20158;-81
2023/05/06 10:36:15;;;;;;;3.20;1.35;;;;;;;24.18;46.90;101511.38;5019739;28;20448;-81
2023/05/06 10:38:44;;;;;;;3.58;1.63;;;;;;;24.55;43.92;101512.28;5011681;28;20052;-81
2023/05/06 10:41:11;;;;;;;4.68;1.70;;;;;;;24.31;43.57;101503.50;5009694;28;20057;-80
2023/05/06 10:43:43;;;;;;;3.20;1.52;;;;;;;24.00;45.15;101508.19;5011049;28;20057;-82
2023/05/06 10:46:16;;;;;;;2.65;1.30;;;;;;;23.64;46.35;101510.78;5010395;28;20488;-81
2023/05/06 10:49:03;;;;;;;3.75;1.60;;;;;;;23.54;47.67;101505.59;5009124;28;20040;-82
2023/05/06 10:51:30;;;;;;;2.75;1.33;;;;;;;23.30;47.73;101505.84;5013532;28;20021;-81
2023/05/06 10:54:05;;;;;;;3.90;1.83;;;;;;;23.14;45.72;101504.09;5015413;28;20061;-82
2023/05/06 10:56:39;;;;;;;2.30;1.30;;;;;;;23.08;46.90;101507.50;5009785;28;20034;-81
2023/05/06 10:59:07;;;;;;;2.58;1.30;;;;;;;23.06;47.12;101501.47;5009696;28;20386;-82
2023/05/06 11:01:35;;;;;;;2.13;1.20;;;;;;;23.06;48.53;101509.53;5011339;28;20507;-82
2023/05/06 11:04:08;;;;;;;3.10;1.35;;;;;;;23.11;48.42;101499.09;5010287;28;20026;-81
2023/05/06 11:06:40;;;;;;;6.80;1.55;;;;;;;22.77;49.38;101499.47;5011307;28;20393;-81
2023/05/06 11:09:14;;;;;;;2.15;1.30;;;;;;;22.97;48.58;101497.19;5037903;28;20021;-81
2023/05/06 11:12:03;;;;;;;3.28;1.55;;;;;;;23.14;50.48;101494.19;5009921;28;20053;-82